Time;durP1;ratioP1;P1;durP2;ratioP2;P2;SDS_P1;SDS_P2;PMS_P1;PMS_P2;Temp;Humidity;BMP_temperature;BMP_pressure;BME280_temperature;BME280_humidity;BME280_pressure;Samples;Min_cycle;Max_cycle;Signal;HPM_P1;HPM_P2
2022/01/05 00:01:17;;;;;;;2.37;2.17;;;5.60;99.90;;;;;;1932943;74;21139;-75
2022/01/05 00:03:43;;;;;;;1.52;1.42;;;5.60;99.90;;;;;;1932307;74;21221;-75
2022/01/05 00:06:09;;;;;;;1.70;1.60;;;5.60;99.90;;;;;;1924683;74;21058;-75
2022/01/05 00:08:37;;;;;;;2.50;1.92;;;5.60;99.90;;;;;;1923039;74;21065;-75
2022/01/05 00:11:05;;;;;;;2.20;2.00;;;5.60;99.90;;;;;;1923109;74;21075;-74
2022/01/05 00:13:30;;;;;;;3.87;1.52;;;5.60;99.90;;;;;;1923636;74;21038;-76
2022/01/05 00:15:57;;;;;;;1.87;1.77;;;5.60;99.90;;;;;;1926510;74;21083;-75
2022/01/05 00:18:23;;;;;;;2.75;1.70;;;5.50;99.90;;;;;;1948433;74;21116;-75
2022/01/05 00:20:49;;;;;;;1.70;1.60;;;5.50;99.90;;;;;;1948584;74;21098;-75
2022/01/05 00:23:15;;;;;;;1.27;1.17;;;5.50;99.90;;;;;;1931107;74;21078;-74
2022/01/05 00:25:41;;;;;;;0.98;0.80;;;5.50;99.90;;;;;;1920536;74;21607;-75
2022/01/05 00:28:07;;;;;;;1.17;0.82;;;5.40;99.90;;;;;;1929726;74;21438;-74
2022/01/05 00:30:33;;;;;;;0.60;0.60;;;5.40;99.90;;;;;;1921256;74;21509;-75
2022/01/05 00:33:00;;;;;;;0.80;0.80;;;5.50;99.90;;;;;;1936340;74;21064;-75
2022/01/05 00:35:26;;;;;;;0.75;0.75;;;5.60;99.90;;;;;;1948451;74;21060;-75
2022/01/05 00:37:52;;;;;;;0.72;0.72;;;5.60;99.90;;;;;;1941063;74;21140;-75
2022/01/05 00:40:18;;;;;;;0.98;0.62;;;5.50;99.90;;;;;;1935721;73;21187;-75
2022/01/05 00:42:45;;;;;;;0.70;0.70;;;5.50;99.90;;;;;;1948218;73;21102;-75
2022/01/05 00:45:13;;;;;;;0.53;0.53;;;5.50;99.90;;;;;;1909250;74;21146;-75
2022/01/05 00:47:39;;;;;;;0.85;0.40;;;5.40;99.90;;;;;;1946992;73;21074;-75
2022/01/05 00:50:05;;;;;;;0.40;0.40;;;5.50;99.90;;;;;;1942493;73;21062;-75
2022/01/05 00:52:31;;;;;;;0.65;0.50;;;5.50;99.90;;;;;;1920187;74;21152;-75
2022/01/05 00:54:57;;;;;;;1.00;0.53;;;5.50;99.90;;;;;;1946746;74;21137;-75
2022/01/05 00:57:24;;;;;;;0.55;0.50;;;5.60;99.90;;;;;;1948455;74;21106;-75
2022/01/05 00:59:50;;;;;;;0.40;0.30;;;5.60;99.90;;;;;;1940180;74;21076;-75
2022/01/05 01:02:16;;;;;;;1.10;0.40;;;5.50;99.90;;;;;;1918634;74;21222;-75
2022/01/05 01:04:42;;;;;;;0.42;0.40;;;5.60;99.90;;;;;;1943162;73;21083;-75
2022/01/05 01:07:08;;;;;;;0.40;0.40;;;5.50;99.90;;;;;;1947603;73;21176;-75
2022/01/05 01:09:34;;;;;;;0.90;0.50;;;5.40;99.90;;;;;;1935109;73;21565;-75
2022/01/05 01:12:00;;;;;;;0.40;0.40;;;5.50;99.90;;;;;;1949675;73;21522;-75
2022/01/05 01:14:26;;;;;;;1.65;0.30;;;5.50;99.90;;;;;;1946614;73;21559;-74
2022/01/05 01:16:54;;;;;;;0.80;0.50;;;5.40;99.90;;;;;;1946628;74;21120;-75
2022/01/05 01:19:20;;;;;;;0.42;0.42;;;5.50;99.90;;;;;;1942273;73;21078;-74
2022/01/05 01:21:46;;;;;;;0.33;0.33;;;5.40;99.90;;;;;;1939581;73;21043;-75
2022/01/05 01:24:12;;;;;;;0.30;0.30;;;5.40;99.90;;;;;;1939897;73;21470;-75
2022/01/05 01:26:38;;;;;;;0.45;0.45;;;5.50;99.90;;;;;;1943633;73;21525;-75
2022/01/05 01:29:05;;;;;;;0.53;0.50;;;5.50;99.90;;;;;;1945697;73;21499;-76
2022/01/05 01:31:31;;;;;;;0.45;0.40;;;5.50;99.90;;;;;;1953742;73;21510;-74
2022/01/05 01:33:57;;;;;;;0.42;0.40;;;5.60;99.90;;;;;;1946905;73;21066;-74
2022/01/05 01:36:23;;;;;;;0.88;0.40;;;5.50;99.90;;;;;;1945650;73;21130;-75
2022/01/05 01:38:49;;;;;;;0.42;0.30;;;5.60;99.90;;;;;;1949685;73;21112;-74
2022/01/05 01:41:15;;;;;;;0.57;0.35;;;5.60;99.90;;;;;;1936357;73;21141;-75
2022/01/05 01:43:41;;;;;;;0.30;0.30;;;5.70;99.90;;;;;;1948242;73;21131;-75
2022/01/05 01:46:08;;;;;;;0.30;0.30;;;5.70;99.90;;;;;;1946048;73;21073;-75
2022/01/05 01:48:34;;;;;;;0.93;0.45;;;5.60;99.90;;;;;;1948502;73;21483;-75
2022/01/05 01:51:02;;;;;;;0.20;0.20;;;5.60;99.90;;;;;;1945489;73;21148;-75
2022/01/05 01:53:28;;;;;;;0.30;0.30;;;5.70;99.90;;;;;;1948700;73;21490;-75
2022/01/05 01:55:54;;;;;;;0.82;0.40;;;5.70;99.90;;;;;;1934759;73;21041;-75
2022/01/05 01:58:20;;;;;;;0.30;0.30;;;5.60;99.90;;;;;;1952118;73;21082;-75
2022/01/05 02:00:46;;;;;;;0.35;0.35;;;5.60;99.90;;;;;;1948295;73;21140;-75
2022/01/05 02:03:14;;;;;;;0.40;0.40;;;5.60;99.90;;;;;;1946458;73;21074;-75
2022/01/05 02:05:40;;;;;;;0.23;0.23;;;5.60;99.90;;;;;;1950353;73;21501;-75
2022/01/05 02:08:06;;;;;;;0.85;0.40;;;5.70;99.90;;;;;;1953576;73;21505;-75
2022/01/05 02:10:32;;;;;;;0.20;0.20;;;5.70;99.90;;;;;;1944979;72;21580;-75
2022/01/05 02:12:58;;;;;;;0.55;0.47;;;5.80;99.90;;;;;;1941675;73;21075;-75
2022/01/05 02:15:24;;;;;;;0.28;0.28;;;5.80;99.90;;;;;;1937041;73;21074;-76
2022/01/05 02:20:30;;;;;;;0.30;0.30;;;5.80;99.90;;;;;;1937827;73;21492;-76
2022/01/05 02:22:56;;;;;;;0.50;0.50;;;5.70;99.90;;;;;;1932212;73;21413;-75
2022/01/05 02:25:23;;;;;;;0.37;0.30;;;5.90;99.90;;;;;;1935292;73;21532;-75
2022/01/05 02:27:49;;;;;;;0.23;0.23;;;6.00;99.90;;;;;;1930964;74;21121;-75
2022/01/05 02:30:15;;;;;;;0.23;0.23;;;5.90;99.90;;;;;;1951053;73;21132;-74
2022/01/05 02:32:41;;;;;;;0.98;0.23;;;5.90;99.90;;;;;;1953733;73;21059;-76
2022/01/05 02:35:07;;;;;;;0.20;0.20;;;5.90;99.90;;;;;;1942770;72;21174;-75
2022/01/05 02:37:33;;;;;;;1.55;0.35;;;5.90;99.90;;;;;;1939353;73;21197;-75
2022/01/05 02:39:59;;;;;;;0.50;0.30;;;5.90;99.90;;;;;;1947784;73;21176;-75
2022/01/05 02:42:25;;;;;;;0.40;0.28;;;5.80;99.90;;;;;;1946947;73;21136;-75
2022/01/05 02:44:52;;;;;;;0.62;0.30;;;5.90;99.90;;;;;;1946577;74;21023;-75
2022/01/05 02:47:18;;;;;;;0.17;0.17;;;5.70;99.90;;;;;;1946366;73;21230;-75
2022/01/05 02:49:46;;;;;;;0.72;0.30;;;5.80;99.90;;;;;;1946497;73;21178;-75
2022/01/05 02:52:13;;;;;;;0.30;0.30;;;5.90;99.90;;;;;;1946390;73;21144;-74
2022/01/05 02:54:39;;;;;;;0.93;0.20;;;5.90;99.90;;;;;;1946530;73;21244;-75
2022/01/05 02:57:05;;;;;;;0.30;0.30;;;5.90;99.90;;;;;;1941303;73;21561;-75
2022/01/05 02:59:31;;;;;;;0.20;0.20;;;6.00;99.90;;;;;;1934128;74;21478;-75
2022/01/05 03:01:57;;;;;;;0.20;0.20;;;6.10;99.90;;;;;;1944162;73;21555;-75
2022/01/05 03:04:23;;;;;;;0.20;0.20;;;6.10;99.90;;;;;;1948297;73;21140;-75
2022/01/05 03:06:49;;;;;;;0.30;0.30;;;6.20;99.90;;;;;;1946508;73;21070;-75
2022/01/05 03:09:16;;;;;;;1.10;0.28;;;6.20;99.90;;;;;;1944487;73;21209;-75
2022/01/05 03:11:42;;;;;;;0.65;0.20;;;6.20;99.90;;;;;;1936939;73;21140;-74
2022/01/05 03:14:08;;;;;;;0.20;0.20;;;6.20;99.90;;;;;;1931847;73;21187;-74
2022/01/05 03:16:34;;;;;;;0.17;0.10;;;6.20;99.90;;;;;;1931077;74;21032;-75
2022/01/05 03:19:00;;;;;;;0.20;0.20;;;6.20;99.90;;;;;;1933097;73;21070;-75
2022/01/05 03:21:26;;;;;;;0.20;0.20;;;6.10;99.90;;;;;;1938324;73;21253;-74
2022/01/05 03:23:52;;;;;;;1.80;0.30;;;6.10;99.90;;;;;;1940528;73;21474;-75
2022/01/05 03:26:18;;;;;;;0.20;0.20;;;6.20;99.90;;;;;;1947102;73;21541;-74
2022/01/05 03:28:45;;;;;;;0.80;0.23;;;6.20;99.90;;;;;;1946351;74;21443;-75
2022/01/05 03:31:11;;;;;;;0.20;0.20;;;6.20;99.90;;;;;;1949211;73;21136;-75
2022/01/05 03:33:37;;;;;;;0.37;0.13;;;6.10;99.90;;;;;;1944973;73;21144;-74
2022/01/05 03:36:03;;;;;;;0.30;0.30;;;6.10;99.90;;;;;;1934018;73;21140;-75
2022/01/05 03:38:30;;;;;;;2.72;0.28;;;6.20;99.90;;;;;;1945987;73;21205;-75
2022/01/05 03:40:56;;;;;;;0.20;0.20;;;6.20;99.90;;;;;;1946046;73;21576;-75
2022/01/05 03:43:22;;;;;;;0.42;0.13;;;6.20;99.90;;;;;;1948213;73;21518;-75
2022/01/05 03:45:49;;;;;;;0.20;0.20;;;6.20;99.90;;;;;;1946226;73;21503;-75
2022/01/05 03:48:15;;;;;;;0.35;0.20;;;6.30;99.90;;;;;;1933181;73;21098;-75
2022/01/05 03:50:41;;;;;;;0.35;0.20;;;6.30;99.90;;;;;;1959312;73;21144;-75
2022/01/05 03:53:07;;;;;;;0.10;0.10;;;6.20;99.90;;;;;;1949378;73;21059;-75
2022/01/05 03:55:33;;;;;;;1.10;0.20;;;6.20;99.90;;;;;;1943041;73;21540;-75
2022/01/05 03:57:59;;;;;;;0.78;0.13;;;6.30;99.90;;;;;;1939196;73;21225;-75
2022/01/05 04:00:27;;;;;;;1.12;0.20;;;6.30;99.90;;;;;;1945711;73;21086;-76
2022/01/05 04:02:53;;;;;;;0.35;0.15;;;6.20;99.90;;;;;;1946278;73;21082;-74
2022/01/05 04:05:20;;;;;;;0.35;0.30;;;6.10;99.90;;;;;;1946334;74;21146;-75
2022/01/05 04:07:46;;;;;;;0.23;0.20;;;6.10;99.90;;;;;;1944570;73;21567;-75
2022/01/05 04:10:12;;;;;;;0.20;0.20;;;6.10;99.90;;;;;;1946085;73;21487;-75
2022/01/05 04:12:38;;;;;;;0.20;0.20;;;6.20;99.90;;;;;;1948485;73;21113;-74
2022/01/05 04:15:04;;;;;;;0.28;0.28;;;6.20;99.90;;;;;;1941997;72;21071;-74
2022/01/05 04:17:30;;;;;;;0.72;0.10;;;6.30;99.90;;;;;;1943344;73;21067;-74
2022/01/05 04:19:57;;;;;;;0.10;0.10;;;6.30;99.90;;;;;;1948327;73;21070;-74
2022/01/05 04:22:23;;;;;;;0.28;0.20;;;6.30;99.90;;;;;;1945814;73;21043;-74
2022/01/05 04:24:49;;;;;;;0.20;0.20;;;6.20;99.90;;;;;;1943743;73;21175;-74
2022/01/05 04:27:15;;;;;;;1.15;0.23;;;6.20;99.90;;;;;;1945667;72;21172;-75
2022/01/05 04:29:42;;;;;;;1.07;0.10;;;6.20;99.90;;;;;;1952592;73;21198;-74
2022/01/05 04:32:08;;;;;;;0.25;0.20;;;6.20;99.90;;;;;;1943185;73;21106;-76
2022/01/05 04:34:34;;;;;;;0.10;0.10;;;6.20;99.90;;;;;;1937495;73;21169;-76
2022/01/05 04:37:00;;;;;;;0.30;0.20;;;6.10;99.90;;;;;;1937567;73;21185;-76
2022/01/05 04:39:26;;;;;;;0.10;0.10;;;6.10;99.90;;;;;;1930655;73;21075;-76
2022/01/05 04:41:52;;;;;;;0.20;0.20;;;6.10;99.90;;;;;;1955416;73;21393;-76
2022/01/05 04:44:18;;;;;;;0.25;0.10;;;6.00;99.90;;;;;;1933066;73;21558;-75
2022/01/05 04:46:44;;;;;;;0.10;0.10;;;6.00;99.90;;;;;;1941567;73;21506;-76
2022/01/05 04:49:11;;;;;;;0.10;0.10;;;6.00;99.90;;;;;;1955890;73;21131;-76
2022/01/05 04:51:37;;;;;;;0.10;0.10;;;6.00;99.90;;;;;;1947524;73;21071;-75
2022/01/05 04:54:03;;;;;;;0.10;0.10;;;5.90;99.90;;;;;;1934560;73;21117;-70
2022/01/05 04:56:29;;;;;;;0.17;0.17;;;5.70;99.90;;;;;;1952174;73;21043;-74
2022/01/05 04:58:56;;;;;;;0.10;0.10;;;5.70;99.90;;;;;;1945168;73;21152;-72
2022/01/05 05:01:22;;;;;;;0.28;0.10;;;5.60;99.90;;;;;;1949684;73;21544;-72
2022/01/05 05:03:48;;;;;;;0.70;0.10;;;5.50;99.90;;;;;;1946497;73;21506;-72
2022/01/05 05:06:15;;;;;;;0.13;0.13;;;5.40;99.90;;;;;;1941957;72;21062;-75
2022/01/05 05:08:41;;;;;;;0.13;0.13;;;5.40;99.90;;;;;;1944579;73;21128;-74
2022/01/05 05:11:07;;;;;;;0.10;0.10;;;5.40;99.90;;;;;;1937801;72;21071;-73
2022/01/05 05:13:33;;;;;;;1.27;0.20;;;5.40;99.90;;;;;;1954215;73;21081;-73
2022/01/05 05:16:01;;;;;;;0.10;0.10;;;5.30;99.90;;;;;;1939751;72;21075;-74
2022/01/05 05:18:28;;;;;;;0.57;0.20;;;5.30;99.90;;;;;;1943318;73;21137;-74
2022/01/05 05:20:54;;;;;;;0.17;0.17;;;5.30;99.90;;;;;;1946163;73;21105;-75
2022/01/05 05:23:20;;;;;;;0.10;0.10;;;5.20;99.90;;;;;;1946497;73;21145;-75
2022/01/05 05:25:46;;;;;;;0.37;0.20;;;5.20;99.90;;;;;;1939966;73;21139;-73
2022/01/05 05:28:12;;;;;;;0.20;0.20;;;5.20;99.90;;;;;;1953637;73;21078;-72
2022/01/05 05:30:38;;;;;;;0.30;0.30;;;5.20;99.90;;;;;;1959296;73;21102;-72
2022/01/05 05:33:04;;;;;;;0.80;0.30;;;5.10;99.90;;;;;;1945709;73;21075;-72
2022/01/05 05:35:30;;;;;;;0.30;0.20;;;5.10;99.90;;;;;;1945004;73;21040;-73
2022/01/05 05:37:57;;;;;;;0.20;0.20;;;5.10;99.90;;;;;;1942764;73;21067;-73
2022/01/05 05:40:23;;;;;;;0.93;0.40;;;5.00;99.90;;;;;;1942396;73;21062;-73
2022/01/05 05:42:49;;;;;;;0.53;0.40;;;4.30;99.90;;;;;;1942345;73;21126;-73
2022/01/05 05:45:15;;;;;;;0.30;0.30;;;3.90;99.90;;;;;;1952141;73;21086;-72
2022/01/05 05:47:41;;;;;;;1.45;0.80;;;3.60;99.90;;;;;;1946293;74;21540;-73
2022/01/05 05:50:07;;;;;;;0.78;0.65;;;3.40;99.90;;;;;;1946393;74;21458;-73
2022/01/05 05:52:33;;;;;;;0.68;0.68;;;3.40;99.90;;;;;;1934445;73;21098;-73
2022/01/05 05:54:59;;;;;;;0.70;0.70;;;3.30;99.90;;;;;;1937373;73;21070;-72
2022/01/05 05:57:25;;;;;;;1.65;0.70;;;3.30;99.90;;;;;;1942230;72;21157;-73
2022/01/05 05:59:52;;;;;;;0.90;0.90;;;3.20;99.90;;;;;;1958447;73;21124;-73
2022/01/05 06:02:18;;;;;;;2.10;0.93;;;3.10;99.90;;;;;;1943531;73;21071;-74
2022/01/05 06:04:44;;;;;;;1.82;1.10;;;3.00;99.90;;;;;;1933331;74;21067;-74
2022/01/05 06:07:10;;;;;;;0.85;0.85;;;3.00;99.90;;;;;;1945731;73;21140;-73
2022/01/05 06:09:36;;;;;;;1.10;1.10;;;2.90;99.90;;;;;;1944267;73;21043;-72
2022/01/05 06:12:02;;;;;;;0.95;0.93;;;2.90;99.90;;;;;;1940419;73;21073;-73
2022/01/05 06:14:28;;;;;;;1.62;1.35;;;2.90;99.90;;;;;;1959156;73;21102;-73
2022/01/05 06:16:54;;;;;;;1.65;1.10;;;2.90;99.90;;;;;;1947676;73;21070;-73
2022/01/05 06:19:21;;;;;;;0.98;0.95;;;2.90;99.90;;;;;;1944576;73;21078;-73
2022/01/05 06:21:47;;;;;;;1.82;1.10;;;2.90;99.90;;;;;;1946375;73;21503;-73
2022/01/05 06:24:13;;;;;;;1.10;1.07;;;2.90;99.90;;;;;;1946601;74;21070;-73
2022/01/05 06:26:39;;;;;;;1.92;1.17;;;2.90;99.90;;;;;;1946250;73;21066;-73
2022/01/05 06:29:06;;;;;;;1.20;1.15;;;3.00;99.90;;;;;;1954489;73;21058;-73
2022/01/05 06:31:32;;;;;;;1.40;1.20;;;3.00;99.90;;;;;;1950409;73;21035;-73
2022/01/05 06:33:59;;;;;;;2.20;1.65;;;3.00;99.90;;;;;;1944006;73;21091;-73
2022/01/05 06:36:26;;;;;;;1.40;1.30;;;3.00;99.90;;;;;;1947461;73;21070;-72
2022/01/05 06:38:52;;;;;;;1.90;1.52;;;3.10;99.90;;;;;;1940995;73;21157;-74
2022/01/05 06:41:18;;;;;;;7.05;1.67;;;3.10;99.90;;;;;;1931570;74;21223;-75
2022/01/05 06:43:44;;;;;;;1.10;1.10;;;3.10;99.90;;;;;;1939624;73;21104;-75
2022/01/05 06:46:10;;;;;;;2.17;1.35;;;3.10;99.90;;;;;;1937432;73;21079;-73
2022/01/05 06:48:36;;;;;;;1.67;1.57;;;3.10;99.90;;;;;;1950138;73;21225;-73
2022/01/05 06:51:02;;;;;;;1.95;1.72;;;3.20;99.90;;;;;;1938987;73;21035;-72
2022/01/05 06:53:28;;;;;;;1.40;1.25;;;3.20;99.90;;;;;;1946261;73;21550;-72
2022/01/05 06:58:39;;;;;;;1.75;1.40;;;3.20;99.90;;;;;;1946217;74;21535;-71
2022/01/05 07:01:05;;;;;;;1.50;1.40;;;3.30;99.90;;;;;;1946265;73;21486;-72
2022/01/05 07:03:31;;;;;;;3.55;1.20;;;3.40;99.90;;;;;;1940814;73;21491;-72
2022/01/05 07:05:57;;;;;;;1.30;1.20;;;3.40;99.90;;;;;;1938249;73;21075;-73
2022/01/05 07:08:23;;;;;;;2.90;1.60;;;3.40;99.90;;;;;;1946255;73;21047;-72
2022/01/05 07:10:50;;;;;;;2.10;1.12;;;3.40;99.90;;;;;;1943724;73;21075;-72
2022/01/05 07:13:16;;;;;;;1.70;1.10;;;3.40;99.90;;;;;;1947936;73;21153;-72
2022/01/05 07:15:42;;;;;;;2.05;0.90;;;3.30;99.90;;;;;;1944716;73;21075;-74
2022/01/05 07:18:08;;;;;;;1.85;0.90;;;3.20;99.90;;;;;;1935982;73;21211;-74
2022/01/05 07:20:34;;;;;;;4.05;1.15;;;3.20;99.90;;;;;;1945967;73;21026;-74
2022/01/05 07:23:00;;;;;;;3.92;0.98;;;3.00;99.90;;;;;;1945380;73;21036;-75
2022/01/05 07:25:26;;;;;;;2.02;1.00;;;3.00;99.90;;;;;;1946228;74;21186;-74
2022/01/05 07:27:52;;;;;;;1.40;0.70;;;2.90;99.90;;;;;;1946284;74;21139;-74
2022/01/05 07:30:18;;;;;;;1.50;0.82;;;2.90;99.90;;;;;;1946341;74;21117;-75
2022/01/05 07:32:45;;;;;;;2.02;0.90;;;2.80;99.90;;;;;;1946457;74;21140;-74
2022/01/05 07:35:11;;;;;;;1.02;0.80;;;2.90;99.90;;;;;;1932933;73;21529;-75
2022/01/05 07:37:37;;;;;;;3.50;1.20;;;2.90;99.90;;;;;;1939353;73;21432;-74
2022/01/05 07:40:03;;;;;;;0.95;0.75;;;2.90;99.90;;;;;;1947104;73;21432;-74
2022/01/05 07:42:33;;;;;;;0.95;0.95;;;2.90;99.90;;;;;;1945743;73;21191;-75
2022/01/05 07:44:57;;;;;;;2.42;1.00;;;2.90;99.90;;;;;;1945986;73;21242;-76
2022/01/05 07:47:23;;;;;;;2.47;1.20;;;3.00;99.90;;;;;;1943137;73;21521;-75
2022/01/05 07:49:49;;;;;;;17.57;1.27;;;3.00;99.90;;;;;;1938379;73;21495;-76
2022/01/05 07:52:15;;;;;;;2.77;1.30;;;3.10;99.90;;;;;;1947170;73;21548;-77
2022/01/05 07:54:41;;;;;;;2.25;1.00;;;3.10;99.90;;;;;;1945675;73;21071;-77
2022/01/05 07:57:07;;;;;;;2.30;1.12;;;3.20;99.90;;;;;;1952784;73;21039;-78
2022/01/05 07:59:34;;;;;;;4.40;1.00;;;3.30;99.90;;;;;;1951519;73;21074;-76
2022/01/05 08:02:00;;;;;;;2.90;1.02;;;3.30;99.90;;;;;;1948723;73;21074;-78
2022/01/05 08:04:26;;;;;;;2.70;1.17;;;3.30;99.90;;;;;;1951129;73;21059;-77
2022/01/05 08:06:52;;;;;;;3.25;1.10;;;3.30;99.90;;;;;;1941700;73;21059;-77
2022/01/05 08:09:18;;;;;;;3.47;0.95;;;3.30;99.90;;;;;;1946765;73;21070;-76
2022/01/05 08:11:44;;;;;;;4.10;1.30;;;3.30;99.90;;;;;;1944682;73;21134;-75
2022/01/05 08:14:10;;;;;;;3.58;1.40;;;3.30;99.90;;;;;;1943144;72;21100;-76
2022/01/05 08:16:37;;;;;;;3.17;1.40;;;3.30;99.90;;;;;;1949400;73;21066;-76
2022/01/05 08:19:03;;;;;;;2.00;1.00;;;3.30;99.90;;;;;;1941375;73;21117;-76
2022/01/05 08:21:30;;;;;;;4.00;1.65;;;3.30;99.90;;;;;;1940328;73;21091;-77
2022/01/05 08:23:56;;;;;;;4.92;2.02;;;3.40;99.90;;;;;;1949533;73;21067;-81
2022/01/05 08:26:23;;;;;;;5.30;1.50;;;3.30;99.90;;;;;;1946188;73;21202;-74
2022/01/05 08:28:49;;;;;;;4.33;1.50;;;3.40;99.90;;;;;;1946121;73;21128;-75
2022/01/05 08:31:15;;;;;;;1.82;1.20;;;3.40;99.90;;;;;;1937995;73;21078;-81
2022/01/05 08:33:43;;;;;;;6.10;1.60;;;3.40;99.90;;;;;;1944055;73;21208;-76
2022/01/05 08:36:09;;;;;;;4.30;1.87;;;3.40;99.90;;;;;;1938599;72;21500;-76
2022/01/05 08:38:37;;;;;;;4.47;1.60;;;3.50;99.90;;;;;;1951994;73;21458;-79
2022/01/05 08:41:03;;;;;;;4.58;1.80;;;3.40;99.90;;;;;;1957218;72;21160;-77
2022/01/05 08:43:29;;;;;;;7.45;1.98;;;3.50;99.90;;;;;;1946675;73;21170;-76
2022/01/05 08:45:55;;;;;;;8.08;1.85;;;3.40;99.90;;;;;;1936648;73;21113;-76
2022/01/05 08:48:21;;;;;;;3.45;1.50;;;3.40;99.90;;;;;;1952760;73;21081;-75
2022/01/05 08:50:47;;;;;;;8.43;1.42;;;3.40;99.90;;;;;;1952746;73;21062;-76
2022/01/05 08:53:13;;;;;;;6.53;1.95;;;3.40;99.90;;;;;;1953067;73;21070;-75
2022/01/05 08:55:41;;;;;;;9.88;1.50;;;3.40;99.90;;;;;;1947318;73;21177;-75
2022/01/05 08:58:07;;;;;;;4.12;1.65;;;3.40;99.90;;;;;;1947216;73;21164;-75
2022/01/05 09:00:35;;;;;;;3.62;1.42;;;3.30;99.90;;;;;;1945924;73;21078;-75
2022/01/05 09:03:01;;;;;;;3.70;1.70;;;3.30;99.90;;;;;;1929181;73;21070;-76
2022/01/05 09:05:30;;;;;;;6.47;1.80;;;3.30;99.90;;;;;;1946305;73;21076;-76
2022/01/05 09:07:55;;;;;;;3.08;1.27;;;3.30;99.90;;;;;;1946398;74;21103;-78
2022/01/05 09:10:22;;;;;;;5.87;1.65;;;3.30;99.90;;;;;;1946420;74;21058;-76
2022/01/05 09:12:48;;;;;;;3.85;2.10;;;3.40;99.90;;;;;;1944149;73;21155;-75
2022/01/05 09:15:14;;;;;;;5.05;1.47;;;3.30;99.90;;;;;;1944159;73;21035;-73
2022/01/05 09:17:40;;;;;;;4.92;1.80;;;3.40;99.90;;;;;;1954841;72;21199;-83
2022/01/05 09:20:06;;;;;;;4.42;1.40;;;3.40;99.90;;;;;;1947555;73;21561;-79
2022/01/05 09:22:37;;;;;;;4.42;1.50;;;3.40;99.90;;;;;;1938850;73;21063;-80
2022/01/05 09:25:00;;;;;;;9.63;2.10;;;3.70;99.90;;;;;;1946919;73;21524;-79
2022/01/05 09:27:26;;;;;;;3.25;1.65;;;4.00;99.90;;;;;;1951164;73;21140;-79
2022/01/05 09:29:52;;;;;;;3.40;1.70;;;4.20;99.90;;;;;;1947462;73;21125;-77
2022/01/05 09:32:18;;;;;;;2.77;1.47;;;4.10;99.90;;;;;;1939228;73;21075;-82
2022/01/05 09:34:45;;;;;;;12.20;1.72;;;4.00;99.90;;;;;;1946248;73;21069;-78
2022/01/05 09:37:19;;;;;;;3.62;1.42;;;3.90;99.90;;;;;;1950405;73;21070;-77
2022/01/05 09:42:23;;;;;;;2.83;1.35;;;3.70;99.90;;;;;;1954277;73;21063;-83
2022/01/05 09:44:49;;;;;;;4.65;1.27;;;3.70;99.90;;;;;;1953644;73;21140;-83
2022/01/05 09:47:18;;;;;;;4.08;1.47;;;3.80;99.90;;;;;;1949730;73;21073;-81
2022/01/05 09:49:45;;;;;;;3.60;1.50;;;3.80;99.90;;;;;;1949689;73;21125;-84
2022/01/05 09:52:11;;;;;;;3.95;1.65;;;3.80;99.90;;;;;;1946330;72;21070;-84
2022/01/05 09:54:42;;;;;;;6.78;1.60;;;3.90;99.90;;;;;;1938157;73;21131;-82
2022/01/05 09:57:06;;;;;;;3.87;1.47;;;3.90;99.90;;;;;;1950066;73;21095;-79
2022/01/05 09:59:33;;;;;;;4.08;1.27;;;3.90;99.90;;;;;;1942771;73;21094;-82
2022/01/05 10:01:59;;;;;;;4.78;1.60;;;3.90;99.90;;;;;;1934706;73;21107;-80
2022/01/05 10:04:25;;;;;;;4.33;1.57;;;4.00;99.90;;;;;;1950174;73;21075;-79
2022/01/05 10:06:51;;;;;;;3.08;1.40;;;3.90;99.90;;;;;;1936930;73;21066;-81
2022/01/05 10:09:17;;;;;;;2.25;1.02;;;3.80;99.90;;;;;;1947106;73;21078;-78
2022/01/05 10:11:45;;;;;;;4.75;1.37;;;3.80;99.90;;;;;;1944289;73;21124;-81
2022/01/05 10:14:13;;;;;;;13.28;1.70;;;3.70;99.90;;;;;;1949534;73;21540;-80
2022/01/05 10:16:40;;;;;;;6.22;1.67;;;3.70;99.90;;;;;;1947652;73;21127;-84
2022/01/05 10:19:08;;;;;;;3.67;1.30;;;3.70;99.90;;;;;;1952098;73;21090;-79
2022/01/05 10:21:34;;;;;;;4.92;1.57;;;3.60;99.90;;;;;;1951591;73;21156;-81
2022/01/05 10:24:00;;;;;;;1.87;1.07;;;3.60;99.90;;;;;;1944955;73;21207;-82
2022/01/05 10:26:27;;;;;;;6.12;1.55;;;3.50;99.90;;;;;;1942461;73;21070;-82
2022/01/05 10:28:53;;;;;;;4.97;1.70;;;3.60;99.90;;;;;;1936868;73;21572;-79
2022/01/05 10:31:19;;;;;;;4.83;1.75;;;3.50;99.90;;;;;;1941127;73;21176;-79
2022/01/05 10:33:46;;;;;;;7.75;1.98;;;3.40;99.90;;;;;;1940409;73;21075;-80
2022/01/05 10:36:14;;;;;;;5.55;1.62;;;3.40;99.90;;;;;;1940710;73;21131;-83
2022/01/05 10:38:41;;;;;;;3.92;1.52;;;3.50;99.90;;;;;;1946707;73;21493;-85
2022/01/05 10:41:08;;;;;;;12.18;2.30;;;3.60;99.90;;;;;;1945925;73;21078;-82
2022/01/05 10:43:35;;;;;;;6.65;2.00;;;3.60;99.90;;;;;;1952669;73;21067;-80
2022/01/05 10:46:02;;;;;;;5.87;1.70;;;3.50;99.90;;;;;;1946950;73;21494;-79
2022/01/05 10:48:28;;;;;;;8.25;2.10;;;3.50;99.90;;;;;;1946114;73;21471;-77
2022/01/05 10:50:55;;;;;;;5.62;1.60;;;3.40;99.90;;;;;;1952497;73;21059;-79
2022/01/05 10:53:22;;;;;;;7.37;1.87;;;3.60;99.90;;;;;;1945503;73;21090;-77
2022/01/05 10:55:48;;;;;;;3.75;1.50;;;4.30;99.90;;;;;;1949694;73;21132;-80
2022/01/05 10:58:17;;;;;;;4.20;1.30;;;5.00;99.90;;;;;;1947844;73;21160;-80
2022/01/05 11:00:43;;;;;;;4.60;1.35;;;5.30;99.90;;;;;;1933657;73;21483;-82
2022/01/05 11:03:09;;;;;;;10.15;2.10;;;5.90;99.90;;;;;;1943089;73;21152;-82
2022/01/05 11:05:36;;;;;;;5.50;1.77;;;6.20;99.90;;;;;;1935018;73;21109;-81
2022/01/05 11:08:02;;;;;;;3.95;1.52;;;6.50;99.90;;;;;;1943871;73;21160;-78
2022/01/05 11:10:28;;;;;;;8.55;2.00;;;6.60;99.90;;;;;;1947573;74;21074;-77
2022/01/05 11:12:54;;;;;;;4.42;1.30;;;6.40;99.90;;;;;;1947399;74;21487;-79
2022/01/05 11:15:20;;;;;;;4.72;1.55;;;6.40;99.90;;;;;;1945018;73;21558;-81
2022/01/05 11:17:46;;;;;;;7.00;1.80;;;6.50;99.90;;;;;;1940379;73;21024;-81
2022/01/05 11:20:12;;;;;;;6.17;1.57;;;6.90;99.90;;;;;;1939534;73;21479;-81
2022/01/05 11:22:38;;;;;;;7.45;2.00;;;7.20;99.90;;;;;;1948212;73;21075;-84
2022/01/05 11:25:08;;;;;;;4.80;1.67;;;7.40;99.90;;;;;;1940884;73;21063;-82
2022/01/05 11:27:32;;;;;;;4.12;1.55;;;7.40;99.90;;;;;;1941981;73;21495;-80
2022/01/05 11:30:00;;;;;;;6.65;1.77;;;7.30;99.90;;;;;;1946934;74;21529;-85
2022/01/05 11:32:30;;;;;;;5.72;1.47;;;7.10;99.90;;;;;;1939295;73;21119;-78
2022/01/05 11:34:54;;;;;;;6.17;1.50;;;7.10;99.90;;;;;;1943689;73;21096;-71
2022/01/05 11:37:20;;;;;;;4.60;1.80;;;6.80;99.90;;;;;;1944768;73;21031;-82
2022/01/05 11:39:46;;;;;;;6.60;1.77;;;6.40;99.90;;;;;;1951418;73;21136;-79
2022/01/05 11:42:14;;;;;;;4.17;1.57;;;5.80;99.90;;;;;;1951023;72;21066;-79
2022/01/05 11:44:40;;;;;;;4.75;1.60;;;5.70;99.90;;;;;;1948093;73;21141;-81
2022/01/05 11:47:06;;;;;;;7.97;1.70;;;5.80;99.90;;;;;;1934689;73;21129;-86
2022/01/05 11:49:32;;;;;;;11.53;1.98;;;6.60;99.90;;;;;;1935160;73;21051;-81
2022/01/05 11:51:59;;;;;;;4.60;1.85;;;7.00;99.90;;;;;;1939787;73;21144;-81
2022/01/05 11:54:25;;;;;;;9.03;1.70;;;6.70;99.90;;;;;;1941075;73;21502;-82
2022/01/05 11:56:52;;;;;;;7.47;1.80;;;7.20;99.90;;;;;;1943178;73;21502;-82
2022/01/05 11:59:18;;;;;;;7.30;1.50;;;8.00;99.90;;;;;;1950492;73;21137;-82
2022/01/05 12:01:44;;;;;;;6.62;1.75;;;8.30;99.90;;;;;;1947594;73;21071;-84
2022/01/05 12:04:11;;;;;;;7.58;1.45;;;8.20;99.90;;;;;;1947364;73;21128;-82
2022/01/05 12:06:37;;;;;;;5.37;1.75;;;8.00;99.90;;;;;;1949448;73;21476;-80
2022/01/05 12:09:03;;;;;;;7.80;1.55;;;7.90;99.90;;;;;;1947220;73;21082;-79
2022/01/05 12:11:29;;;;;;;5.10;1.57;;;7.80;99.90;;;;;;1947329;73;21086;-84
2022/01/05 12:13:55;;;;;;;4.47;1.50;;;8.10;99.90;;;;;;1937997;73;21189;-80
2022/01/05 12:16:22;;;;;;;12.05;1.98;;;8.10;99.90;;;;;;1949777;73;21140;-81
2022/01/05 12:18:49;;;;;;;7.08;2.12;;;8.00;99.90;;;;;;1937071;73;21612;-82
2022/01/05 12:21:15;;;;;;;4.53;1.30;;;7.80;99.90;;;;;;1948197;73;21451;-82
2022/01/05 12:23:41;;;;;;;4.35;1.75;;;8.40;99.90;;;;;;1946676;73;21491;-80
2022/01/05 12:26:07;;;;;;;10.38;2.00;;;8.60;99.90;;;;;;1954031;73;21477;-80
2022/01/05 12:28:36;;;;;;;5.90;1.62;;;8.30;99.90;;;;;;1946580;73;21074;-87
2022/01/05 12:31:02;;;;;;;13.95;1.77;;;7.90;99.90;;;;;;1943537;73;21049;-85
2022/01/05 12:33:28;;;;;;;7.50;1.80;;;6.80;99.90;;;;;;1946842;73;21156;-86
2022/01/05 12:35:54;;;;;;;9.13;2.20;;;6.00;99.90;;;;;;1947211;74;21164;-89
2022/01/05 12:38:20;;;;;;;4.17;1.90;;;5.70;99.90;;;;;;1947158;72;21143;-83
2022/01/05 12:40:46;;;;;;;6.25;1.75;;;5.90;99.90;;;;;;1933074;74;21028;-82
2022/01/05 12:43:17;;;;;;;7.25;1.62;;;5.90;99.90;;;;;;1947216;73;21074;-86
2022/01/05 12:45:46;;;;;;;;;;;5.70;99.90;;;;;;1951229;73;21043;-83
2022/01/05 12:48:13;;;;;;;10.78;1.80;;;5.20;99.90;;;;;;1950840;73;20168;-86
2022/01/05 12:50:40;;;;;;;5.22;1.55;;;4.80;99.90;;;;;;1950305;72;21117;-87
2022/01/05 12:53:06;;;;;;;5.33;1.45;;;5.00;99.90;;;;;;1946951;73;21467;-80
2022/01/05 12:55:32;;;;;;;13.10;1.85;;;4.80;99.90;;;;;;1946622;73;21494;-78
2022/01/05 12:57:58;;;;;;;9.03;1.82;;;5.00;99.90;;;;;;1936708;73;21471;-80
2022/01/05 13:00:24;;;;;;;6.12;1.70;;;5.90;99.90;;;;;;1947858;73;21479;-82